createdAt,value
2023-02-11T00:01:27.952Z,15.47
2023-02-11T00:03:59.080Z,13.00
2023-02-11T00:06:29.943Z,13.17
2023-02-11T00:09:00.551Z,11.70
2023-02-11T00:11:30.873Z,12.80
2023-02-11T00:14:06.357Z,12.70
2023-02-11T00:16:33.709Z,14.57
2023-02-11T00:19:01.589Z,14.70
2023-02-11T00:21:29.194Z,14.43
2023-02-11T00:24:00.166Z,14.07
2023-02-11T00:26:35.066Z,13.37
2023-02-11T00:29:02.703Z,13.17
2023-02-11T00:31:33.331Z,13.53
2023-02-11T00:34:03.789Z,13.43
2023-02-11T00:36:31.416Z,14.80
2023-02-11T00:39:01.704Z,14.77
2023-02-11T00:41:29.157Z,15.37
2023-02-11T00:43:56.263Z,15.10
2023-02-11T00:46:23.549Z,14.40
2023-02-11T00:48:52.095Z,14.27
2023-02-11T00:51:19.382Z,16.10
2023-02-11T00:53:46.819Z,15.73
2023-02-11T00:56:14.259Z,15.23
2023-02-11T00:58:41.703Z,14.97
2023-02-11T01:01:09.194Z,12.57
2023-02-11T01:03:36.383Z,13.87
2023-02-11T01:06:04.808Z,15.37
2023-02-11T01:08:33.698Z,15.60
2023-02-11T01:11:06.608Z,14.03
2023-02-11T01:13:35.174Z,14.67
2023-02-11T01:16:02.412Z,14.90
2023-02-11T01:18:30.138Z,14.40
2023-02-11T01:20:57.348Z,14.80
2023-02-11T01:23:24.877Z,14.20
2023-02-11T01:25:52.476Z,12.53
2023-02-11T01:28:21.557Z,15.73
2023-02-11T01:30:49.172Z,15.00
2023-02-11T01:33:16.635Z,14.27
2023-02-11T01:35:44.355Z,14.30
2023-02-11T01:38:23.170Z,12.43
2023-02-11T01:41:01.441Z,12.47
2023-02-11T01:43:31.198Z,12.47
2023-02-11T01:46:00.023Z,14.13
2023-02-11T01:48:42.009Z,13.40
2023-02-11T01:51:25.194Z,16.37
2023-02-11T01:54:11.114Z,13.43
2023-02-11T01:56:58.869Z,13.50
2023-02-11T01:59:32.788Z,15.23
2023-02-11T02:02:04.059Z,14.27
2023-02-11T02:04:33.746Z,14.13
2023-02-11T02:07:04.630Z,16.27
2023-02-11T02:09:34.428Z,13.93
2023-02-11T02:12:02.553Z,14.73
2023-02-11T02:14:29.925Z,14.13
2023-02-11T02:16:57.078Z,12.93
2023-02-11T02:19:58.559Z,13.03
2023-02-11T02:22:53.413Z,12.47
2023-02-11T02:25:39.741Z,22.73
2023-02-11T02:28:31.042Z,17.70
2023-02-11T02:31:25.749Z,15.50
2023-02-11T02:34:16.874Z,15.53
2023-02-11T02:37:15.926Z,13.63
2023-02-11T02:39:43.355Z,13.67
2023-02-11T02:42:10.705Z,12.67
2023-02-11T02:44:38.257Z,14.03
2023-02-11T02:47:05.913Z,12.53
2023-02-11T02:49:33.228Z,14.13
2023-02-11T02:52:18.320Z,15.27
2023-02-11T02:54:48.414Z,15.70
2023-02-11T02:57:52.759Z,15.53
2023-02-11T03:00:38.398Z,15.57
2023-02-11T03:03:27.195Z,16.97
2023-02-11T03:06:08.704Z,15.77
2023-02-11T03:08:40.483Z,16.13
2023-02-11T03:11:07.957Z,15.83
2023-02-11T03:13:36.336Z,14.13
2023-02-11T03:16:27.485Z,16.47
2023-02-11T03:19:01.708Z,17.43
2023-02-11T03:21:29.592Z,19.10
2023-02-11T03:24:03.302Z,18.17
2023-02-11T03:26:31.411Z,15.27
2023-02-11T03:29:06.651Z,17.10
2023-02-11T03:31:57.067Z,17.43
2023-02-11T03:34:34.178Z,15.10
2023-02-11T03:37:02.833Z,15.50
2023-02-11T03:39:40.140Z,18.17
2023-02-11T03:42:08.131Z,19.57
2023-02-11T03:44:45.112Z,18.17
2023-02-11T03:47:13.057Z,17.83
2023-02-11T03:49:40.450Z,16.33
2023-02-11T03:52:08.029Z,14.87
2023-02-11T03:54:35.207Z,14.00
2023-02-11T03:57:02.814Z,17.87
2023-02-11T03:59:30.260Z,18.03
2023-02-11T04:01:59.873Z,16.90
2023-02-11T04:04:27.335Z,15.17
2023-02-11T04:06:54.526Z,16.73
2023-02-11T04:09:22.029Z,15.53
2023-02-11T04:11:49.211Z,18.50
2023-02-11T04:14:16.630Z,16.73
2023-02-11T04:16:44.302Z,19.00
2023-02-11T04:19:11.913Z,18.00
2023-02-11T04:21:39.665Z,20.47
2023-02-11T04:24:06.870Z,19.93
2023-02-11T04:26:34.437Z,20.30
2023-02-11T04:29:02.162Z,19.43
2023-02-11T04:31:29.941Z,21.67
2023-02-11T04:33:57.196Z,20.10
2023-02-11T04:36:24.647Z,20.60
2023-02-11T04:38:51.715Z,19.63
2023-02-11T04:41:19.304Z,19.63
2023-02-11T04:43:46.529Z,20.93
2023-02-11T04:46:13.865Z,20.53
2023-02-11T04:48:41.613Z,21.20
2023-02-11T04:51:08.945Z,18.70
2023-02-11T04:53:36.113Z,18.67
2023-02-11T04:56:03.222Z,19.90
2023-02-11T04:58:30.546Z,18.97
2023-02-11T05:01:11.983Z,21.80
2023-02-11T05:03:39.638Z,19.57
2023-02-11T05:06:07.593Z,19.87
2023-02-11T05:08:35.114Z,21.63
2023-02-11T05:11:02.619Z,23.23
2023-02-11T05:13:30.091Z,25.33
2023-02-11T05:15:57.581Z,22.80
2023-02-11T05:18:24.852Z,19.20
2023-02-11T05:20:52.383Z,20.40
2023-02-11T05:23:20.521Z,20.57
2023-02-11T05:25:48.501Z,23.07
2023-02-11T05:28:16.131Z,19.50
2023-02-11T05:30:43.662Z,21.77
2023-02-11T05:33:11.114Z,24.47
2023-02-11T05:35:38.622Z,23.43
2023-02-11T05:38:06.324Z,25.00
2023-02-11T05:40:33.782Z,23.00
2023-02-11T05:43:01.230Z,24.33
2023-02-11T05:45:28.726Z,23.03
2023-02-11T05:47:56.519Z,25.27
2023-02-11T05:50:25.860Z,24.83
2023-02-11T05:52:53.087Z,28.77
2023-02-11T05:55:20.623Z,24.50
2023-02-11T05:57:47.850Z,28.20
2023-02-11T06:00:15.963Z,28.23
2023-02-11T06:02:43.329Z,27.73
2023-02-11T06:05:11.110Z,28.80
2023-02-11T06:07:38.403Z,27.30
2023-02-11T06:10:06.194Z,27.30
2023-02-11T06:12:33.913Z,26.13
2023-02-11T06:15:01.308Z,28.43
2023-02-11T06:17:33.228Z,26.47
2023-02-11T06:20:01.149Z,25.43
2023-02-11T06:22:29.382Z,25.57
2023-02-11T06:25:02.092Z,27.57
2023-02-11T06:27:30.955Z,22.40
2023-02-11T06:29:58.303Z,26.20
2023-02-11T06:35:14.952Z,25.97
2023-02-11T06:37:42.734Z,27.83
2023-02-11T06:40:11.447Z,30.07
2023-02-11T06:42:39.756Z,29.60
2023-02-11T06:45:09.753Z,29.07
2023-02-11T06:47:40.648Z,29.47
2023-02-11T06:50:09.024Z,26.47
2023-02-11T06:52:37.927Z,28.17
2023-02-11T06:55:05.618Z,30.13
2023-02-11T06:57:36.131Z,26.43
2023-02-11T07:00:05.582Z,28.20
2023-02-11T07:02:33.379Z,26.60
2023-02-11T07:05:00.874Z,27.60
2023-02-11T07:07:28.090Z,27.00
2023-02-11T07:09:55.459Z,26.93
2023-02-11T07:12:23.317Z,26.00
2023-02-11T07:14:50.667Z,27.03
2023-02-11T07:17:18.064Z,27.23
2023-02-11T07:19:45.385Z,26.23
2023-02-11T07:22:13.025Z,26.20
2023-02-11T07:24:40.426Z,25.93
2023-02-11T07:27:07.693Z,26.30
2023-02-11T07:29:35.471Z,26.23
2023-02-11T07:32:02.940Z,27.73
2023-02-11T07:34:30.867Z,27.17
2023-02-11T07:36:58.442Z,26.23
2023-02-11T07:39:28.002Z,27.13
2023-02-11T07:41:55.566Z,25.40
2023-02-11T07:44:23.047Z,24.50
2023-02-11T07:46:50.218Z,25.17
2023-02-11T07:49:17.520Z,26.87
2023-02-11T07:51:45.120Z,26.40
2023-02-11T07:54:12.625Z,26.17
2023-02-11T07:56:40.020Z,27.00
2023-02-11T07:59:07.504Z,27.90
2023-02-11T08:01:35.000Z,25.60
2023-02-11T08:04:02.688Z,28.53
2023-02-11T08:06:31.885Z,26.47
2023-02-11T08:09:03.257Z,27.03
2023-02-11T08:11:30.904Z,26.83
2023-02-11T08:13:58.562Z,26.23
2023-02-11T08:16:30.396Z,25.43
2023-02-11T08:18:59.289Z,28.50
2023-02-11T08:21:26.741Z,29.40
2023-02-11T08:23:54.318Z,25.57
2023-02-11T08:26:26.556Z,26.23
2023-02-11T08:28:54.677Z,24.60
2023-02-11T08:31:24.138Z,27.70
2023-02-11T08:33:52.006Z,24.23
2023-02-11T08:36:23.625Z,24.87
2023-02-11T08:38:51.307Z,25.07
2023-02-11T08:41:19.009Z,28.53
2023-02-11T08:43:46.380Z,27.40
2023-02-11T08:46:15.788Z,26.77
2023-02-11T08:48:43.763Z,28.07
2023-02-11T08:51:13.663Z,25.83
2023-02-11T08:53:41.277Z,26.87
2023-02-11T08:56:12.173Z,25.90
2023-02-11T08:58:40.895Z,24.70
2023-02-11T09:01:16.718Z,27.33
2023-02-11T09:03:44.195Z,26.73
2023-02-11T09:06:11.745Z,27.43
2023-02-11T09:08:39.867Z,27.00
2023-02-11T09:11:07.402Z,26.17
2023-02-11T09:13:34.720Z,24.37
2023-02-11T09:16:02.287Z,28.87
2023-02-11T09:18:29.901Z,29.03
2023-02-11T09:21:05.158Z,27.80
2023-02-11T09:23:34.563Z,28.30
2023-02-11T09:26:09.226Z,31.50
2023-02-11T09:28:37.360Z,26.47
2023-02-11T09:31:09.088Z,33.27
2023-02-11T09:33:36.429Z,26.33
2023-02-11T09:36:05.777Z,27.43
2023-02-11T09:38:33.923Z,27.90
2023-02-11T09:41:04.367Z,28.23
2023-02-11T09:43:39.832Z,27.47
2023-02-11T09:46:07.138Z,26.23
2023-02-11T09:48:40.429Z,27.63
2023-02-11T09:51:08.313Z,24.67
2023-02-11T09:53:37.885Z,27.00
2023-02-11T09:56:14.852Z,26.10
2023-02-11T09:58:43.555Z,27.27
2023-02-11T10:01:26.154Z,26.17
2023-02-11T10:03:56.413Z,26.20
2023-02-11T10:06:52.405Z,29.60
2023-02-11T10:09:26.142Z,27.17
2023-02-11T10:12:15.374Z,27.77
2023-02-11T10:14:48.488Z,30.67
2023-02-11T10:17:16.199Z,30.53
2023-02-11T10:19:49.388Z,26.60
2023-02-11T10:22:43.759Z,27.33
2023-02-11T10:25:29.365Z,32.10
2023-02-11T10:27:59.395Z,31.10
2023-02-11T10:30:38.855Z,30.03
2023-02-11T10:33:25.004Z,26.93
2023-02-11T10:35:53.028Z,30.20
2023-02-11T10:38:20.862Z,24.00
2023-02-11T10:40:48.501Z,27.73
2023-02-11T10:43:26.085Z,30.90
2023-02-11T10:45:54.331Z,27.97
2023-02-11T10:48:40.241Z,33.53
2023-02-11T10:51:28.729Z,29.20
2023-02-11T10:54:05.623Z,27.63
2023-02-11T10:56:37.955Z,25.07
2023-02-11T10:59:24.139Z,23.97
2023-02-11T11:02:00.922Z,24.53
2023-02-11T11:04:35.728Z,22.90
2023-02-11T11:07:29.156Z,25.97
2023-02-11T11:10:03.099Z,25.00
2023-02-11T11:12:36.659Z,25.33
2023-02-11T11:15:22.121Z,23.53
2023-02-11T11:17:50.653Z,22.93
2023-02-11T11:20:22.996Z,21.83
2023-02-11T11:22:55.817Z,23.07
2023-02-11T11:25:27.987Z,24.17
2023-02-11T11:27:57.866Z,23.60
2023-02-11T11:30:40.176Z,23.27
2023-02-11T11:33:18.881Z,25.17
2023-02-11T11:35:53.726Z,24.30
2023-02-11T11:38:21.427Z,23.23
2023-02-11T11:40:49.031Z,22.37
2023-02-11T11:43:23.115Z,23.37
2023-02-11T11:45:58.599Z,21.00
2023-02-11T11:48:28.046Z,21.07
2023-02-11T11:51:03.066Z,22.67
2023-02-11T11:53:45.914Z,20.80
2023-02-11T11:56:26.814Z,20.97
2023-02-11T11:58:54.670Z,22.10
2023-02-11T12:01:43.797Z,21.27
2023-02-11T12:04:45.712Z,23.23
2023-02-11T12:07:26.044Z,19.53
2023-02-11T12:10:15.523Z,21.67
2023-02-11T12:13:14.813Z,20.93
2023-02-11T12:15:48.003Z,31.47
2023-02-11T12:18:33.854Z,22.20
2023-02-11T12:21:13.486Z,19.27
2023-02-11T12:24:05.045Z,22.27
2023-02-11T12:26:45.436Z,20.30
2023-02-11T12:29:24.951Z,21.70
2023-02-11T12:32:18.829Z,20.03
2023-02-11T12:35:07.998Z,19.67
2023-02-11T12:37:39.080Z,18.67
2023-02-11T12:40:30.101Z,16.87
2023-02-11T12:43:18.618Z,15.60
2023-02-11T12:46:03.076Z,18.70
2023-02-11T12:49:18.461Z,16.77
2023-02-11T12:52:11.332Z,15.17
2023-02-11T12:55:16.568Z,14.43
2023-02-11T12:57:44.152Z,17.70
2023-02-11T13:00:19.610Z,16.50
2023-02-11T13:03:07.500Z,15.57
2023-02-11T13:05:43.638Z,15.20
2023-02-11T13:08:40.576Z,16.13
2023-02-11T13:11:14.346Z,17.43
2023-02-11T13:14:02.698Z,16.03
2023-02-11T13:16:39.647Z,17.97
2023-02-11T13:19:21.701Z,17.53
2023-02-11T13:21:56.418Z,15.93
2023-02-11T13:24:44.707Z,15.67
2023-02-11T13:27:37.364Z,16.53
2023-02-11T13:30:27.694Z,17.43
2023-02-11T13:32:56.097Z,17.37
2023-02-11T13:35:37.237Z,20.40
2023-02-11T13:38:34.082Z,18.93
2023-02-11T13:41:21.614Z,16.27
2023-02-11T13:43:59.079Z,15.47
2023-02-11T13:46:26.640Z,16.47
2023-02-11T13:48:54.051Z,16.57
2023-02-11T13:51:36.779Z,16.10
2023-02-11T13:54:04.789Z,17.40
2023-02-11T13:56:37.260Z,17.07
2023-02-11T13:59:34.060Z,15.90
2023-02-11T14:02:21.557Z,16.90
2023-02-11T14:05:25.501Z,18.63
2023-02-11T14:08:29.338Z,16.60
2023-02-11T14:11:13.368Z,15.27
2023-02-11T14:13:49.904Z,16.13
2023-02-11T14:16:36.914Z,18.13
2023-02-11T14:19:06.851Z,17.40
2023-02-11T14:21:45.982Z,16.63
2023-02-11T14:24:13.652Z,17.53
2023-02-11T14:27:02.247Z,17.53
2023-02-11T14:29:52.870Z,17.07
2023-02-11T14:32:46.055Z,15.97
2023-02-11T14:35:33.435Z,16.20
2023-02-11T14:38:29.029Z,16.27
2023-02-11T14:41:05.627Z,16.97
2023-02-11T14:43:40.358Z,16.43
2023-02-11T14:46:07.873Z,16.70
2023-02-11T14:48:37.910Z,17.00
2023-02-11T14:51:18.518Z,16.80
2023-02-11T14:53:48.456Z,17.73
2023-02-11T14:56:22.164Z,19.33
2023-02-11T14:58:52.211Z,18.20
2023-02-11T15:01:38.581Z,18.97
2023-02-11T15:04:06.894Z,18.13
2023-02-11T15:06:35.137Z,17.73
2023-02-11T15:09:18.303Z,18.53
2023-02-11T15:11:49.145Z,16.83
2023-02-11T15:14:26.804Z,15.80
2023-02-11T15:16:55.579Z,18.00
2023-02-11T15:19:39.754Z,17.47
2023-02-11T15:22:19.032Z,16.60
2023-02-11T15:24:47.108Z,17.53
2023-02-11T15:27:16.440Z,16.77
2023-02-11T15:29:49.934Z,19.63
2023-02-11T15:32:25.047Z,18.03
2023-02-11T15:34:54.170Z,18.57
2023-02-11T15:37:30.086Z,17.53
2023-02-11T15:40:12.411Z,20.57
2023-02-11T15:42:52.140Z,18.63
2023-02-11T15:45:21.125Z,19.77
2023-02-11T15:47:56.881Z,20.30
2023-02-11T15:50:29.761Z,20.60
2023-02-11T15:52:58.833Z,17.27
2023-02-11T15:55:29.156Z,19.10
2023-02-11T15:57:58.371Z,19.47
2023-02-11T16:00:32.962Z,19.27
2023-02-11T16:03:00.332Z,18.83
2023-02-11T16:05:29.344Z,21.23
2023-02-11T16:07:57.608Z,18.43
2023-02-11T16:10:27.423Z,17.83
2023-02-11T16:12:59.582Z,18.50
2023-02-11T16:15:33.924Z,17.70
2023-02-11T16:18:16.126Z,18.40
2023-02-11T16:20:48.229Z,18.53
2023-02-11T16:23:20.873Z,18.33
2023-02-11T16:25:48.364Z,17.10
2023-02-11T16:28:16.327Z,18.73
2023-02-11T16:30:43.857Z,16.70
2023-02-11T16:33:11.927Z,18.23
2023-02-11T16:35:39.415Z,18.87
2023-02-11T16:38:06.653Z,18.20
2023-02-11T16:40:33.940Z,18.73
2023-02-11T16:43:01.463Z,19.00
2023-02-11T16:45:28.684Z,18.17
2023-02-11T16:47:56.187Z,17.40
2023-02-11T16:50:25.220Z,17.37
2023-02-11T16:52:55.199Z,17.80
2023-02-11T16:55:22.625Z,17.67
2023-02-11T16:57:50.164Z,18.73
2023-02-11T17:00:17.873Z,18.17
2023-02-11T17:02:45.420Z,18.90
2023-02-11T17:05:21.307Z,19.20
2023-02-11T17:07:49.244Z,18.90
2023-02-11T17:10:21.643Z,18.93
2023-02-11T17:12:50.394Z,19.57
2023-02-11T17:15:17.709Z,18.97
2023-02-11T17:17:46.425Z,21.40
2023-02-11T17:20:14.498Z,20.17
2023-02-11T17:22:42.218Z,20.13
2023-02-11T17:25:09.937Z,20.90
2023-02-11T17:27:37.310Z,21.70
2023-02-11T17:30:05.823Z,23.47
2023-02-11T17:32:32.957Z,22.50
2023-02-11T17:35:00.274Z,21.87
2023-02-11T17:37:27.478Z,22.03
2023-02-11T17:39:55.508Z,22.00
2023-02-11T17:42:22.757Z,22.00
2023-02-11T17:44:50.014Z,20.33
2023-02-11T17:47:17.539Z,21.83
2023-02-11T17:49:44.714Z,23.77
2023-02-11T17:52:12.362Z,23.63
2023-02-11T17:54:40.420Z,21.10
2023-02-11T17:57:08.140Z,21.03
2023-02-11T17:59:35.965Z,21.80
2023-02-11T18:02:04.107Z,22.87
2023-02-11T18:04:32.247Z,23.53
2023-02-11T18:06:59.962Z,21.07
2023-02-11T18:09:27.608Z,20.20
2023-02-11T18:11:55.289Z,21.43
2023-02-11T18:14:23.056Z,22.00
2023-02-11T18:16:52.340Z,21.43
2023-02-11T18:19:20.089Z,21.07
2023-02-11T18:21:50.515Z,23.00
2023-02-11T18:24:18.031Z,23.47
2023-02-11T18:26:45.210Z,22.20
2023-02-11T18:29:12.450Z,23.80
2023-02-11T18:31:40.385Z,22.17
2023-02-11T18:34:08.473Z,20.03
2023-02-11T18:36:36.548Z,22.30
2023-02-11T18:39:05.198Z,24.87
2023-02-11T18:41:32.478Z,25.13
2023-02-11T18:44:03.381Z,23.23
2023-02-11T18:46:31.915Z,22.43
2023-02-11T18:48:59.440Z,23.17
2023-02-11T18:51:26.993Z,19.80
2023-02-11T18:53:54.974Z,21.50
2023-02-11T18:56:23.607Z,23.17
2023-02-11T18:58:52.171Z,22.63
2023-02-11T19:01:21.559Z,22.20
2023-02-11T19:03:48.859Z,21.83
2023-02-11T19:06:27.985Z,21.70
2023-02-11T19:08:59.415Z,21.37
2023-02-11T19:11:46.696Z,22.47
2023-02-11T19:14:27.993Z,21.27
2023-02-11T19:16:56.657Z,22.63
2023-02-11T19:19:28.377Z,22.40
2023-02-11T19:21:55.688Z,21.37
2023-02-11T19:24:23.269Z,21.30
2023-02-11T19:26:51.492Z,23.27
2023-02-11T19:29:18.985Z,23.50
2023-02-11T19:31:47.118Z,21.83
2023-02-11T19:34:15.691Z,21.13
2023-02-11T19:36:43.294Z,20.63
2023-02-11T19:39:10.517Z,22.43
2023-02-11T19:41:38.063Z,23.87
2023-02-11T19:44:06.222Z,24.63
2023-02-11T19:46:36.489Z,25.23
2023-02-11T19:49:04.562Z,23.87
2023-02-11T19:51:33.901Z,24.60
2023-02-11T19:54:01.312Z,24.70
2023-02-11T19:56:28.940Z,25.73
2023-02-11T19:58:56.736Z,23.57
2023-02-11T20:01:24.833Z,21.77
2023-02-11T20:03:53.191Z,22.03
2023-02-11T20:06:23.766Z,21.27
2023-02-11T20:09:07.683Z,21.57
2023-02-11T20:11:36.082Z,21.40
2023-02-11T20:14:03.936Z,21.40
2023-02-11T20:16:46.905Z,21.37
2023-02-11T20:19:20.906Z,22.57
2023-02-11T20:21:49.445Z,24.67
2023-02-11T20:24:17.932Z,21.17
2023-02-11T20:26:47.023Z,22.07
2023-02-11T20:29:15.798Z,22.17
2023-02-11T20:31:43.406Z,23.20
2023-02-11T20:34:11.213Z,22.20
2023-02-11T20:36:40.727Z,21.80
2023-02-11T20:39:08.569Z,21.43
2023-02-11T20:41:36.814Z,21.67
2023-02-11T20:44:05.984Z,22.53
2023-02-11T20:46:33.888Z,22.03
2023-02-11T20:49:01.898Z,23.13
2023-02-11T20:51:31.102Z,21.43
2023-02-11T20:53:58.297Z,22.90
2023-02-11T20:56:35.959Z,22.77
2023-02-11T20:59:04.421Z,23.67
2023-02-11T21:01:43.856Z,22.33
2023-02-11T21:04:18.820Z,23.17
2023-02-11T21:06:47.783Z,22.90
2023-02-11T21:09:17.711Z,22.53
2023-02-11T21:11:45.368Z,23.27
2023-02-11T21:14:13.112Z,24.47
2023-02-11T21:16:40.709Z,24.53
2023-02-11T21:19:08.314Z,23.60
2023-02-11T21:21:36.809Z,23.80
2023-02-11T21:24:05.672Z,23.23
2023-02-11T21:26:33.280Z,25.20
2023-02-11T21:29:00.445Z,24.60
2023-02-11T21:31:30.023Z,24.77
2023-02-11T21:33:59.690Z,26.80
2023-02-11T21:36:28.028Z,26.63
2023-02-11T21:38:55.265Z,25.27
2023-02-11T21:41:22.899Z,25.00
2023-02-11T21:43:50.583Z,24.07
2023-02-11T21:46:18.038Z,24.10
2023-02-11T21:48:45.612Z,23.80
2023-02-11T21:51:21.123Z,24.90
2023-02-11T21:53:48.541Z,25.27
2023-02-11T21:56:17.431Z,25.80
2023-02-11T21:58:45.153Z,25.57
2023-02-11T22:01:14.341Z,25.50
2023-02-11T22:03:41.813Z,24.33
2023-02-11T22:06:14.039Z,24.03
2023-02-11T22:08:41.603Z,24.93
2023-02-11T22:11:10.712Z,24.17
2023-02-11T22:13:38.296Z,25.27
2023-02-11T22:16:07.290Z,26.87
2023-02-11T22:18:34.699Z,25.07
2023-02-11T22:21:12.745Z,25.60
2023-02-11T22:23:40.303Z,24.63
2023-02-11T22:26:12.744Z,25.73
2023-02-11T22:28:41.145Z,24.97
2023-02-11T22:31:12.293Z,25.23
2023-02-11T22:33:39.635Z,25.33
2023-02-11T22:36:09.438Z,25.30
2023-02-11T22:38:36.660Z,25.97
2023-02-11T22:41:08.379Z,27.77
2023-02-11T22:43:35.894Z,26.97
2023-02-11T22:46:04.226Z,27.93
2023-02-11T22:48:31.755Z,27.17
2023-02-11T22:51:07.889Z,29.23
2023-02-11T22:53:35.079Z,25.97
2023-02-11T22:56:04.646Z,27.83
2023-02-11T22:58:32.122Z,28.23
2023-02-11T23:00:59.478Z,29.67
2023-02-11T23:03:26.816Z,28.17
2023-02-11T23:05:54.775Z,28.00
2023-02-11T23:08:22.378Z,26.47
2023-02-11T23:10:49.740Z,29.67
2023-02-11T23:13:17.221Z,29.10
2023-02-11T23:15:45.161Z,29.13
2023-02-11T23:18:12.549Z,28.30
2023-02-11T23:20:41.566Z,29.07
2023-02-11T23:23:08.999Z,29.47
2023-02-11T23:25:36.254Z,28.43
2023-02-11T23:28:04.233Z,30.20
2023-02-11T23:30:31.549Z,28.67
2023-02-11T23:32:58.977Z,29.07
2023-02-11T23:35:26.341Z,28.67
2023-02-11T23:37:53.632Z,29.67
2023-02-11T23:40:21.425Z,28.87
2023-02-11T23:42:49.311Z,30.23
2023-02-11T23:45:16.603Z,28.67
2023-02-11T23:47:44.142Z,29.53
2023-02-11T23:50:11.848Z,30.50
2023-02-11T23:52:39.114Z,30.07
2023-02-11T23:55:06.637Z,28.33
2023-02-11T23:57:34.116Z,30.20
